Time;durP1;ratioP1;P1;durP2;ratioP2;P2;SDS_P1;SDS_P2;PMS_P1;PMS_P2;Temp;Humidity;BMP_temperature;BMP_pressure;BME280_temperature;BME280_humidity;BME280_pressure;Samples;Min_cycle;Max_cycle;Signal;HPM_P1;HPM_P2
2021/06/10 00:02:18;;;;;;;19.13;7.05;;;;;;;15.48;71.93;102035.59;5062516;28;20020;-66
2021/06/10 00:04:44;;;;;;;19.60;7.75;;;;;;;15.34;72.75;102033.75;5063844;28;20029;-67
2021/06/10 00:07:09;;;;;;;20.02;8.13;;;;;;;15.27;73.02;102037.28;5063632;28;20534;-65
2021/06/10 00:09:35;;;;;;;20.60;8.35;;;;;;;15.23;72.83;102030.19;5062461;28;20025;-65
2021/06/10 00:12:00;;;;;;;20.30;8.20;;;;;;;15.09;72.58;102027.44;5064550;28;20017;-66
2021/06/10 00:14:26;;;;;;;22.05;8.43;;;;;;;15.02;73.43;102027.41;5061580;28;20021;-68
2021/06/10 00:16:52;;;;;;;20.00;8.43;;;;;;;14.94;73.50;102027.34;5064622;28;20032;-65
2021/06/10 00:19:17;;;;;;;19.75;8.93;;;;;;;14.92;74.56;102023.81;5062164;28;20016;-67
2021/06/10 00:21:43;;;;;;;20.63;8.75;;;;;;;14.81;74.28;102024.66;5063321;28;20074;-65
2021/06/10 00:24:09;;;;;;;21.95;8.70;;;;;;;14.73;74.56;102028.16;5063365;28;20036;-66
2021/06/10 00:26:35;;;;;;;21.42;8.80;;;;;;;14.65;75.48;102030.78;5061996;28;20104;-63
2021/06/10 00:29:01;;;;;;;20.13;8.55;;;;;;;14.61;76.18;102028.94;5064703;28;20032;-63
2021/06/10 00:31:26;;;;;;;20.63;8.40;;;;;;;14.58;75.95;102032.47;5061298;28;20021;-63
2021/06/10 00:33:52;;;;;;;20.92;8.05;;;;;;;14.63;75.77;102033.44;5064438;28;20029;-63
2021/06/10 00:36:17;;;;;;;20.95;8.07;;;;;;;14.61;75.73;102028.94;5061896;28;20361;-63
2021/06/10 00:38:44;;;;;;;20.85;8.23;;;;;;;14.54;76.09;102035.09;5062986;28;20035;-63
2021/06/10 00:41:09;;;;;;;22.30;8.25;;;;;;;14.39;77.10;102039.41;5063104;28;20435;-63
2021/06/10 00:43:34;;;;;;;20.38;7.72;;;;;;;14.47;76.69;102036.81;5062119;28;20105;-64
2021/06/10 00:46:00;;;;;;;22.52;7.95;;;;;;;14.44;76.15;102036.78;5063969;28;20045;-64
2021/06/10 00:48:25;;;;;;;23.58;7.88;;;;;;;14.51;75.50;102030.63;5061331;28;20040;-64
2021/06/10 00:50:51;;;;;;;21.50;7.90;;;;;;;14.56;75.42;102033.31;5063779;28;20024;-64
2021/06/10 00:53:25;;;;;;;24.35;9.07;;;;;;;14.58;75.37;102026.25;5061724;28;20063;-64
2021/06/10 00:55:56;;;;;;;21.48;8.43;;;;;;;14.56;75.28;102036.91;5063966;28;20051;-64
2021/06/10 00:58:22;;;;;;;22.08;8.07;;;;;;;14.49;75.28;102027.09;5061102;28;20484;-64
2021/06/10 01:00:48;;;;;;;21.98;8.15;;;;;;;14.50;75.31;102026.19;5063628;28;20029;-64
2021/06/10 01:03:14;;;;;;;22.88;8.85;;;;;;;14.56;74.95;102023.59;5062222;28;20067;-63
2021/06/10 01:05:41;;;;;;;21.58;8.27;;;;;;;14.52;75.65;102026.19;5062322;28;20037;-64
2021/06/10 01:08:23;;;;;;;21.50;8.27;;;;;;;14.47;75.06;102026.16;5063011;28;20029;-64
2021/06/10 01:11:00;;;;;;;22.88;8.70;;;;;;;14.42;75.76;102028.81;5066847;28;20025;-64
2021/06/10 01:13:49;;;;;;;22.50;9.30;;;;;;;14.42;75.06;102030.59;5061198;28;20094;-64
2021/06/10 01:16:20;;;;;;;21.45;8.50;;;;;;;14.42;75.61;102025.25;5065856;28;20029;-63
2021/06/10 01:18:47;;;;;;;21.80;8.70;;;;;;;14.42;75.75;102022.59;5065862;28;20111;-63
2021/06/10 01:21:13;;;;;;;21.33;8.30;;;;;;;14.28;76.12;102023.41;5066723;28;20032;-63
2021/06/10 01:24:22;;;;;;;20.35;8.63;;;;;;;14.25;75.35;102031.31;5066899;28;20371;-63
2021/06/10 01:26:59;;;;;;;20.52;8.60;;;;;;;14.13;76.22;102033.91;5066569;28;20064;-63
2021/06/10 01:29:25;;;;;;;22.92;9.10;;;;;;;14.11;76.76;102031.22;5060649;28;20021;-63
2021/06/10 01:31:51;;;;;;;21.05;8.80;;;;;;;14.10;77.25;102025.91;5067403;28;20503;-63
2021/06/10 01:34:18;;;;;;;20.83;8.68;;;;;;;14.16;77.19;102028.59;5065612;28;20025;-63
2021/06/10 01:36:46;;;;;;;22.55;8.95;;;;;;;14.26;76.79;102027.78;5066394;28;20104;-62
2021/06/10 01:39:15;;;;;;;22.08;9.40;;;;;;;14.13;76.96;102037.44;5065822;28;20032;-64
2021/06/10 01:41:42;;;;;;;20.00;8.63;;;;;;;14.16;77.69;102033.03;5065687;28;20029;-63
2021/06/10 01:44:09;;;;;;;23.42;9.70;;;;;;;14.06;79.51;102034.72;5066605;28;20033;-63
2021/06/10 01:46:35;;;;;;;21.63;8.75;;;;;;;13.97;79.93;102026.66;5064980;28;20021;-63
2021/06/10 01:49:01;;;;;;;19.85;8.43;;;;;;;13.85;81.18;102020.34;5067334;28;20026;-64
2021/06/10 01:51:29;;;;;;;20.23;8.57;;;;;;;13.76;81.63;102017.59;5062340;28;20032;-63
2021/06/10 01:53:58;;;;;;;20.15;8.23;;;;;;;13.73;82.00;102020.22;5065594;28;20078;-63
2021/06/10 01:56:25;;;;;;;20.40;8.70;;;;;;;13.80;81.26;102027.38;5066389;28;20084;-62
2021/06/10 01:58:52;;;;;;;20.50;8.15;;;;;;;13.88;80.15;102022.16;5067182;28;20382;-62
2021/06/10 02:01:18;;;;;;;19.67;8.25;;;;;;;13.78;80.53;102022.06;5064307;28;20035;-63
2021/06/10 02:03:45;;;;;;;21.38;8.32;;;;;;;13.80;80.04;102019.41;5066020;28;20375;-63
2021/06/10 02:06:11;;;;;;;24.40;8.63;;;;;;;13.73;80.48;102023.78;5059685;28;20021;-62
2021/06/10 02:08:40;;;;;;;21.48;8.30;;;;;;;13.67;79.94;102020.16;5068111;28;20463;-62
2021/06/10 02:11:06;;;;;;;20.13;8.20;;;;;;;13.65;80.39;102016.63;5070880;28;20540;-61
2021/06/10 02:13:33;;;;;;;19.80;8.07;;;;;;;13.55;80.04;102020.94;5067756;28;20032;-62
2021/06/10 02:16:04;;;;;;;19.60;8.50;;;;;;;13.56;80.47;102023.59;5064609;28;20484;-62
2021/06/10 02:18:30;;;;;;;20.20;8.45;;;;;;;13.57;79.79;102014.78;5065485;28;20029;-63
2021/06/10 02:21:02;;;;;;;19.95;8.38;;;;;;;13.62;79.88;102019.25;5063015;28;20020;-67
2021/06/10 02:23:27;;;;;;;20.70;8.90;;;;;;;13.55;80.75;102012.97;5063798;28;20025;-65
2021/06/10 02:25:53;;;;;;;21.98;9.30;;;;;;;13.47;81.89;102011.97;5069402;28;20024;-62
2021/06/10 02:28:19;;;;;;;21.92;8.68;;;;;;;13.47;81.23;102015.56;5064738;28;20075;-62
2021/06/10 02:30:44;;;;;;;21.52;8.13;;;;;;;13.42;81.95;102019.91;5064678;28;20024;-66
2021/06/10 02:33:09;;;;;;;20.63;8.38;;;;;;;13.49;81.02;102012.91;5063499;28;20484;-67
2021/06/10 02:35:35;;;;;;;21.45;8.27;;;;;;;13.45;81.24;102019.94;5066406;28;20372;-62
2021/06/10 02:38:02;;;;;;;21.55;8.98;;;;;;;13.34;82.52;102016.22;5058832;28;20035;-62
2021/06/10 02:40:33;;;;;;;21.30;9.65;;;;;;;13.23;82.83;102006.38;5066220;28;20037;-65
2021/06/10 02:43:02;;;;;;;21.88;10.23;;;;;;;13.22;82.86;102016.97;5063469;28;20111;-65
2021/06/10 02:45:28;;;;;;;20.38;9.20;;;;;;;13.25;81.70;102006.38;5064864;28;20047;-65
2021/06/10 02:47:55;;;;;;;21.77;9.90;;;;;;;13.19;82.27;102003.66;5063908;28;20119;-67
2021/06/10 02:50:22;;;;;;;22.42;10.35;;;;;;;13.15;82.48;102008.06;5065512;28;20388;-65
2021/06/10 02:52:50;;;;;;;21.35;9.65;;;;;;;13.00;82.44;102013.16;5064863;28;20059;-67
2021/06/10 02:55:17;;;;;;;23.42;9.65;;;;;;;13.05;82.84;102012.38;5064156;28;20025;-67
2021/06/10 02:57:44;;;;;;;21.40;9.73;;;;;;;13.06;82.37;102002.63;5065457;28;20097;-67
2021/06/10 03:00:11;;;;;;;22.85;9.38;;;;;;;13.10;81.98;102001.78;5063593;28;20021;-67
2021/06/10 03:02:37;;;;;;;21.27;9.93;;;;;;;13.04;82.99;101997.31;5066025;28;20078;-65
2021/06/10 03:05:04;;;;;;;23.77;10.85;;;;;;;13.02;82.74;102000.84;5062851;28;20488;-67
2021/06/10 03:07:30;;;;;;;21.65;10.40;;;;;;;13.03;81.79;101991.97;5065972;28;20028;-68
2021/06/10 03:09:57;;;;;;;22.77;10.45;;;;;;;12.99;81.92;102003.41;5063195;28;20032;-67
2021/06/10 03:12:23;;;;;;;22.88;10.95;;;;;;;13.03;82.25;101990.22;5065286;28;20024;-67
2021/06/10 03:14:50;;;;;;;22.88;10.90;;;;;;;12.96;82.12;101987.47;5064709;28;20029;-67
2021/06/10 03:17:18;;;;;;;23.80;11.05;;;;;;;12.95;81.94;101993.66;5063882;28;20025;-68
2021/06/10 03:19:44;;;;;;;21.52;10.30;;;;;;;12.86;82.94;101990.00;5064767;28;20085;-65
2021/06/10 03:22:09;;;;;;;22.58;10.57;;;;;;;12.82;83.89;101988.19;5062895;28;20662;-63
2021/06/10 03:24:36;;;;;;;23.35;10.45;;;;;;;12.80;84.12;101986.38;5065636;28;20097;-64
2021/06/10 03:27:03;;;;;;;23.52;10.85;;;;;;;12.89;83.83;101981.19;5058502;28;20049;-64
2021/06/10 03:29:29;;;;;;;23.50;11.32;;;;;;;12.98;83.31;101981.31;5065811;28;20028;-63
2021/06/10 03:31:55;;;;;;;21.65;10.18;;;;;;;13.03;82.38;101978.69;5062860;28;20020;-63
2021/06/10 03:34:21;;;;;;;22.80;10.43;;;;;;;13.02;82.25;101982.25;5064292;28;20472;-63
2021/06/10 03:36:46;;;;;;;23.83;11.20;;;;;;;12.97;82.18;101978.63;5063981;28;20025;-63
2021/06/10 03:39:15;;;;;;;23.40;10.77;;;;;;;12.98;82.00;101973.34;5062780;28;20031;-63
2021/06/10 03:41:41;;;;;;;23.25;11.13;;;;;;;12.98;82.21;101980.44;5064829;28;20451;-63
2021/06/10 03:44:08;;;;;;;24.20;11.25;;;;;;;12.98;82.80;101975.13;5062320;28;20068;-63
2021/06/10 03:46:35;;;;;;;23.52;11.48;;;;;;;13.05;83.80;101974.31;5065262;28;20469;-64
2021/06/10 03:49:02;;;;;;;26.50;12.48;;;;;;;13.06;83.43;101976.09;5062134;28;20418;-63
2021/06/10 03:51:28;;;;;;;22.83;11.43;;;;;;;13.06;82.86;101978.72;5064990;28;20056;-63
2021/06/10 03:53:55;;;;;;;23.48;11.70;;;;;;;13.05;83.00;101976.97;5063020;28;20494;-64
2021/06/10 03:56:20;;;;;;;26.85;13.05;;;;;;;13.01;83.57;101980.47;5064049;28;20024;-64
2021/06/10 03:58:46;;;;;;;25.20;13.02;;;;;;;13.05;82.92;101977.84;5064076;28;20027;-64
2021/06/10 04:01:11;;;;;;;28.13;13.40;;;;;;;13.01;83.36;101980.47;5059109;28;20049;-63
2021/06/10 04:03:36;;;;;;;25.95;13.20;;;;;;;13.08;84.17;101983.19;5063769;28;20424;-64
2021/06/10 04:06:02;;;;;;;25.48;13.55;;;;;;;13.07;84.40;101980.53;5061863;28;20033;-63
2021/06/10 04:08:28;;;;;;;28.02;13.65;;;;;;;13.10;85.16;101983.22;5063064;28;20025;-64
2021/06/10 04:10:53;;;;;;;23.85;12.07;;;;;;;13.08;86.33;101985.84;5061377;28;20017;-67
2021/06/10 04:13:19;;;;;;;25.20;13.13;;;;;;;13.16;85.87;101985.06;5064511;28;20097;-68
2021/06/10 04:15:44;;;;;;;27.30;14.25;;;;;;;13.20;85.01;101986.88;5062431;28;20493;-67
2021/06/10 04:18:17;;;;;;;24.20;12.93;;;;;;;13.25;84.61;101990.47;5063698;28;20021;-66
2021/06/10 04:20:42;;;;;;;26.40;15.50;;;;;;;13.33;84.02;101987.91;5062455;28;20028;-67
2021/06/10 04:23:08;;;;;;;26.80;15.52;;;;;;;13.38;86.46;101984.47;5062803;28;20021;-67
2021/06/10 04:25:33;;;;;;;28.83;17.23;;;;;;;13.57;85.29;101982.91;5063989;28;20029;-67
2021/06/10 04:27:58;;;;;;;27.85;15.07;;;;;;;13.56;84.78;101980.22;5061342;28;20025;-67
2021/06/10 04:30:24;;;;;;;28.50;18.40;;;;;;;13.69;84.68;101981.22;5064695;28;20020;-66
2021/06/10 04:32:50;;;;;;;29.23;18.30;;;;;;;13.84;83.96;101975.16;5061447;28;20096;-68
2021/06/10 04:35:15;;;;;;;28.55;17.20;;;;;;;13.86;83.32;101976.97;5063881;28;20120;-67
2021/06/10 04:37:41;;;;;;;30.00;19.67;;;;;;;13.92;83.71;101985.00;5062564;28;20104;-67
2021/06/10 04:40:07;;;;;;;30.73;19.17;;;;;;;13.96;83.60;101985.88;5062739;28;20040;-67
2021/06/10 04:42:32;;;;;;;29.48;19.00;;;;;;;14.05;82.85;101991.31;5063749;28;20605;-67
2021/06/10 04:44:58;;;;;;;30.45;18.55;;;;;;;14.13;82.68;101975.41;5060413;28;20053;-67
2021/06/10 04:47:23;;;;;;;30.30;19.25;;;;;;;14.16;82.76;101983.41;5064697;28;20075;-66
2021/06/10 04:49:48;;;;;;;31.27;19.85;;;;;;;14.23;82.55;101979.91;5061364;28;20064;-66
2021/06/10 04:52:14;;;;;;;36.92;19.95;;;;;;;14.23;83.92;101985.22;5063474;28;20468;-67
2021/06/10 04:54:40;;;;;;;30.65;21.20;;;;;;;14.32;83.69;101995.03;5062761;28;20464;-68
2021/06/10 04:57:06;;;;;;;30.42;22.55;;;;;;;14.36;83.57;101983.53;5061917;28;20025;-67
2021/06/10 04:59:32;;;;;;;31.00;21.63;;;;;;;14.44;83.96;101979.13;5063994;28;20025;-62
2021/06/10 05:01:57;;;;;;;34.22;24.05;;;;;;;14.54;82.30;101974.78;5061019;28;20380;-67
2021/06/10 05:04:23;;;;;;;34.55;23.02;;;;;;;14.57;82.49;101974.78;5056664;28;20120;-68
2021/06/10 05:06:51;;;;;;;32.45;24.33;;;;;;;14.67;82.29;101982.88;5064056;28;20025;-67
2021/06/10 05:09:16;;;;;;;30.83;23.20;;;;;;;14.79;81.92;101975.84;5061554;28;20035;-71
2021/06/10 05:11:42;;;;;;;34.40;25.38;;;;;;;14.91;82.49;101979.44;5062867;28;20037;-68
2021/06/10 05:14:07;;;;;;;34.67;26.23;;;;;;;14.93;81.43;101973.22;5062893;28;20028;-68
2021/06/10 05:16:33;;;;;;;36.35;28.13;;;;;;;15.09;80.75;101973.31;5061283;28;20031;-68
2021/06/10 05:18:58;;;;;;;34.50;27.10;;;;;;;15.21;81.20;101967.13;5063946;28;20020;-66
2021/06/10 05:21:23;;;;;;;35.13;26.55;;;;;;;15.31;80.63;101969.81;5059650;28;20476;-66
2021/06/10 05:23:49;;;;;;;34.92;26.27;;;;;;;15.42;81.55;101956.53;5063627;28;20464;-68
2021/06/10 05:26:14;;;;;;;37.28;29.33;;;;;;;15.50;80.20;101968.06;5061601;28;20103;-65
2021/06/10 05:28:40;;;;;;;35.42;27.73;;;;;;;15.57;79.29;101968.97;5062271;28;20029;-62
2021/06/10 05:31:07;;;;;;;35.40;27.33;;;;;;;15.69;78.59;101968.09;5060467;28;20068;-61
2021/06/10 05:33:33;;;;;;;34.92;27.00;;;;;;;15.79;78.05;101969.91;5064706;28;20028;-61
2021/06/10 05:35:59;;;;;;;34.60;27.33;;;;;;;15.88;77.43;101979.69;5064808;28;20016;-61
2021/06/10 05:38:24;;;;;;;34.25;26.92;;;;;;;15.98;77.78;101968.13;5064317;28;20360;-62
2021/06/10 05:40:50;;;;;;;36.47;28.30;;;;;;;16.09;78.55;101978.81;5063264;28;20021;-61
2021/06/10 05:43:15;;;;;;;34.65;26.88;;;;;;;16.20;77.53;101978.78;5061666;28;20033;-62
2021/06/10 05:45:41;;;;;;;32.50;24.88;;;;;;;16.29;75.60;101984.09;5064230;28;20045;-61
2021/06/10 05:48:07;;;;;;;33.25;25.15;;;;;;;16.36;74.81;101982.34;5061769;28;20484;-62
2021/06/10 05:50:32;;;;;;;32.95;25.52;;;;;;;16.44;75.71;101987.66;5063753;28;20036;-62
2021/06/10 05:52:58;;;;;;;31.63;23.42;;;;;;;16.50;73.57;101987.66;5060987;28;20383;-62
2021/06/10 05:55:23;;;;;;;33.25;25.05;;;;;;;16.57;71.83;101984.06;5062248;28;20561;-61
2021/06/10 05:57:48;;;;;;;33.22;25.60;;;;;;;16.62;71.83;101976.94;5068869;28;20031;-62
2021/06/10 06:00:16;;;;;;;31.75;22.45;;;;;;;16.70;68.90;101971.56;5070581;28;20017;-62
2021/06/10 06:02:41;;;;;;;31.52;22.73;;;;;;;16.81;68.53;101982.22;5066891;28;20029;-62
2021/06/10 06:05:07;;;;;;;29.65;20.88;;;;;;;16.92;67.29;101979.53;5066726;28;20027;-62
2021/06/10 06:07:32;;;;;;;27.77;18.55;;;;;;;17.03;66.14;101991.94;5066096;28;20478;-62
2021/06/10 06:09:58;;;;;;;28.33;17.77;;;;;;;17.10;64.77;101997.28;5064135;28;20013;-62
2021/06/10 06:12:23;;;;;;;27.77;17.17;;;;;;;17.20;64.45;101991.00;5064922;28;20024;-63
2021/06/10 06:14:49;;;;;;;26.27;15.93;;;;;;;17.27;63.40;101989.16;5065392;28;20029;-60
2021/06/10 06:17:16;;;;;;;26.60;16.60;;;;;;;17.36;64.25;101997.16;5068335;28;20175;-61
2021/06/10 06:19:41;;;;;;;27.42;17.33;;;;;;;17.43;66.20;101994.41;5060770;28;20032;-62
2021/06/10 06:22:08;;;;;;;28.60;16.63;;;;;;;17.53;63.50;101994.34;5067300;28;20375;-61
2021/06/10 06:24:34;;;;;;;26.77;16.73;;;;;;;17.61;62.92;101997.88;5063898;28;20105;-62
2021/06/10 06:27:00;;;;;;;29.73;18.05;;;;;;;17.72;65.05;101995.09;5065536;28;20028;-61
2021/06/10 06:29:26;;;;;;;29.95;20.15;;;;;;;17.79;64.29;101996.84;5067255;28;20021;-61
2021/06/10 06:31:51;;;;;;;32.10;19.63;;;;;;;17.84;63.37;101997.72;5065555;28;20052;-60
2021/06/10 06:34:17;;;;;;;29.98;21.45;;;;;;;17.91;65.03;101990.53;5066072;28;20467;-61
2021/06/10 06:36:43;;;;;;;30.02;20.60;;;;;;;17.94;64.79;101995.91;5066209;28;20033;-61
2021/06/10 06:39:09;;;;;;;30.13;20.80;;;;;;;17.96;64.50;101994.09;5065964;28;20025;-62
2021/06/10 06:41:35;;;;;;;31.13;21.63;;;;;;;17.99;65.55;101993.19;5065060;28;20035;-62
2021/06/10 06:44:02;;;;;;;29.83;21.30;;;;;;;18.00;65.66;101995.84;5064611;28;20082;-62
2021/06/10 06:46:27;;;;;;;28.73;19.00;;;;;;;18.09;63.21;101990.41;5064278;28;20047;-62
2021/06/10 06:48:52;;;;;;;30.33;19.58;;;;;;;18.22;66.35;101995.66;5064847;28;20037;-61
2021/06/10 06:51:18;;;;;;;28.98;19.88;;;;;;;18.30;64.45;101988.41;5067764;28;20100;-62
2021/06/10 06:53:43;;;;;;;29.92;20.80;;;;;;;18.45;63.81;101998.09;5066381;28;20039;-62
2021/06/10 06:56:08;;;;;;;30.88;19.90;;;;;;;18.45;63.44;101998.97;5066061;28;20070;-62
2021/06/10 06:58:34;;;;;;;33.35;23.27;;;;;;;18.60;64.74;101997.06;5062148;28;20033;-63
2021/06/10 07:00:59;;;;;;;29.45;20.83;;;;;;;18.66;64.19;101994.28;5053502;28;20020;-63
2021/06/10 07:03:24;;;;;;;28.52;18.83;;;;;;;18.72;63.60;102001.38;5053279;28;20367;-62
2021/06/10 07:05:52;;;;;;;27.73;17.60;;;;;;;18.86;62.08;102006.56;5052802;28;20486;-63
2021/06/10 07:08:18;;;;;;;26.50;17.95;;;;;;;18.93;59.74;102001.16;5054048;28;20500;-62
2021/06/10 07:10:43;;;;;;;26.95;17.35;;;;;;;19.09;60.12;102006.31;5053092;28;20032;-62
2021/06/10 07:13:08;;;;;;;24.92;14.55;;;;;;;19.27;59.76;101999.84;5054839;28;20105;-62
2021/06/10 07:15:34;;;;;;;25.10;15.20;;;;;;;19.43;59.01;101995.16;5053346;28;20025;-65
2021/06/10 07:18:00;;;;;;;27.10;15.32;;;;;;;19.51;58.49;101998.59;5060022;28;20475;-69
2021/06/10 07:20:25;;;;;;;23.58;13.55;;;;;;;19.55;54.91;101997.63;5064216;28;20144;-66
2021/06/10 07:22:51;;;;;;;24.15;13.10;;;;;;;19.62;54.53;102006.50;5062149;28;20032;-67
2021/06/10 07:25:16;;;;;;;23.52;11.70;;;;;;;19.71;53.64;102010.81;5058659;28;20030;-67
2021/06/10 07:27:43;;;;;;;24.30;12.70;;;;;;;19.83;53.70;102010.66;5062453;28;20047;-69
2021/06/10 07:30:09;;;;;;;23.67;12.82;;;;;;;19.96;54.03;102012.22;5064272;28;20032;-70
2021/06/10 07:32:35;;;;;;;23.88;12.70;;;;;;;20.10;53.97;102016.50;5062043;28;20029;-66
2021/06/10 07:35:00;;;;;;;24.58;13.55;;;;;;;20.18;53.27;102012.78;5060639;28;20387;-65
2021/06/10 07:37:26;;;;;;;26.58;13.98;;;;;;;20.22;52.09;102012.72;5065826;28;20142;-69
2021/06/10 07:39:51;;;;;;;24.50;12.98;;;;;;;20.33;53.83;102021.47;5062108;28;20025;-66
2021/06/10 07:42:17;;;;;;;24.70;13.38;;;;;;;20.46;54.20;102019.41;5062745;28;20491;-66
2021/06/10 07:44:42;;;;;;;25.92;13.93;;;;;;;20.62;52.88;102020.00;5066109;28;20033;-66
2021/06/10 07:47:07;;;;;;;24.67;13.48;;;;;;;20.74;52.90;102019.84;5063173;28;20025;-66
2021/06/10 07:49:33;;;;;;;24.52;13.30;;;;;;;20.84;53.16;102025.91;5065979;28;20115;-68
2021/06/10 07:51:59;;;;;;;26.45;14.25;;;;;;;20.93;51.88;102022.16;5060246;28;20411;-64
2021/06/10 07:54:25;;;;;;;25.90;14.77;;;;;;;21.03;52.74;102024.63;5062343;28;20067;-65
2021/06/10 07:56:50;;;;;;;26.55;15.73;;;;;;;21.10;53.08;102022.69;5064454;28;20048;-70
2021/06/10 07:59:22;;;;;;;27.02;17.10;;;;;;;21.10;52.76;102028.06;5062486;28;20024;-69
2021/06/10 08:01:47;;;;;;;28.67;16.83;;;;;;;21.18;53.27;102039.53;5064163;28;20785;-69
2021/06/10 08:04:12;;;;;;;27.50;17.10;;;;;;;21.25;52.78;102027.72;5055826;28;20040;-65
2021/06/10 08:06:38;;;;;;;32.60;17.42;;;;;;;21.33;52.46;102026.66;5061660;28;20029;-67
2021/06/10 08:09:03;;;;;;;27.48;17.08;;;;;;;21.44;51.56;102038.09;5064750;28;20455;-69
2021/06/10 08:11:29;;;;;;;28.35;19.50;;;;;;;21.41;51.63;102036.34;5062116;28;20037;-69
2021/06/10 08:13:54;;;;;;;30.30;18.77;;;;;;;21.47;52.30;102034.44;5063541;28;20079;-69
2021/06/10 08:16:20;;;;;;;27.77;18.10;;;;;;;21.55;52.55;102028.00;5063245;28;20035;-64
2021/06/10 08:18:46;;;;;;;30.80;18.00;;;;;;;21.61;51.71;102026.97;5061491;28;20025;-63
2021/06/10 08:21:11;;;;;;;29.40;18.33;;;;;;;21.70;50.35;102036.66;5064605;28;20357;-64
2021/06/10 08:23:37;;;;;;;28.98;18.17;;;;;;;21.82;51.41;102024.69;5061149;28;20075;-63
2021/06/10 08:26:03;;;;;;;28.30;18.95;;;;;;;21.91;51.57;102029.84;5064191;28;20032;-63
2021/06/10 08:28:30;;;;;;;29.10;19.70;;;;;;;22.01;50.38;102030.50;5061849;28;20031;-63
2021/06/10 08:30:56;;;;;;;28.63;19.15;;;;;;;22.15;50.85;102031.06;5063196;28;20824;-62
2021/06/10 08:33:22;;;;;;;28.42;18.35;;;;;;;22.20;50.21;102029.13;5063051;28;20103;-64
2021/06/10 08:35:47;;;;;;;29.00;18.42;;;;;;;22.15;48.82;102025.66;5062579;28;20432;-64
2021/06/10 08:38:13;;;;;;;28.35;18.05;;;;;;;22.28;50.92;102028.94;5063926;28;20371;-64
2021/06/10 08:40:39;;;;;;;30.00;19.58;;;;;;;22.28;49.42;102021.72;5061388;28;20033;-71
2021/06/10 08:43:09;;;;;;;29.42;20.02;;;;;;;22.26;50.71;102018.19;5064369;28;20028;-69
2021/06/10 08:45:37;;;;;;;32.20;21.13;;;;;;;22.31;49.74;102010.00;5056757;28;20451;-70
2021/06/10 08:48:03;;;;;;;28.83;19.60;;;;;;;22.40;49.38;102017.84;5063611;28;20024;-66
2021/06/10 08:50:32;;;;;;;29.73;19.05;;;;;;;22.62;50.31;102018.16;5061588;28;20472;-66
2021/06/10 08:52:59;;;;;;;27.80;17.52;;;;;;;22.93;50.55;102014.56;5060160;28;20017;-70
2021/06/10 08:55:27;;;;;;;25.67;16.33;;;;;;;23.03;48.68;102022.41;5060727;28;20036;-70
2021/06/10 08:57:52;;;;;;;29.95;18.67;;;;;;;22.97;47.87;102018.09;5062687;28;20104;-70
2021/06/10 09:00:22;;;;;;;27.42;17.67;;;;;;;23.08;50.60;102026.75;5063010;28;20067;-70
2021/06/10 09:02:59;;;;;;;26.73;17.50;;;;;;;23.10;48.76;102032.09;5063018;28;20429;-69
2021/06/10 09:05:28;;;;;;;28.23;18.75;;;;;;;23.17;49.10;102031.03;5054515;28;20078;-72
2021/06/10 09:08:01;;;;;;;27.92;18.98;;;;;;;23.21;46.77;102032.69;5055688;28;20464;-64
2021/06/10 09:10:29;;;;;;;26.75;18.10;;;;;;;23.43;47.88;102026.63;5049157;28;20128;-61
2021/06/10 09:12:57;;;;;;;27.95;18.70;;;;;;;23.63;47.45;102032.28;5051199;28;20425;-63
2021/06/10 09:15:27;;;;;;;25.55;14.73;;;;;;;23.71;47.96;102025.75;5050556;28;20379;-61
2021/06/10 09:17:59;;;;;;;24.17;13.50;;;;;;;23.40;45.10;102032.13;5050053;28;20040;-61
2021/06/10 09:20:25;;;;;;;27.02;15.15;;;;;;;23.47;45.29;102029.19;5052842;28;20025;-70
2021/06/10 09:22:52;;;;;;;22.83;10.80;;;;;;;23.48;42.67;102033.66;5050670;28;20501;-66
2021/06/10 09:25:24;;;;;;;24.50;13.10;;;;;;;23.50;44.09;102028.19;5053415;28;20045;-69
2021/06/10 09:28:03;;;;;;;24.85;12.95;;;;;;;23.74;46.33;102025.66;5049857;28;20429;-61
2021/06/10 09:30:43;;;;;;;24.77;14.13;;;;;;;23.89;46.13;102041.38;5054595;28;20021;-61
2021/06/10 09:33:12;;;;;;;23.20;11.35;;;;;;;23.91;43.61;102042.25;5062030;28;20032;-61
2021/06/10 09:35:40;;;;;;;21.52;10.88;;;;;;;23.92;41.84;102032.31;5059322;28;20048;-63
2021/06/10 09:38:08;;;;;;;24.55;13.20;;;;;;;24.08;43.91;102033.56;5062115;28;20024;-61
2021/06/10 09:40:35;;;;;;;23.50;12.05;;;;;;;24.22;42.02;102026.78;5059959;28;20029;-63
2021/06/10 09:43:01;;;;;;;24.35;14.77;;;;;;;24.25;42.78;102037.53;5064770;28;20479;-62
2021/06/10 09:45:28;;;;;;;24.85;13.10;;;;;;;24.37;45.62;102034.38;5059627;28;20059;-62
2021/06/10 09:47:59;;;;;;;24.02;12.70;;;;;;;24.41;42.19;102032.47;5061731;28;20390;-62
2021/06/10 09:50:24;;;;;;;23.00;12.23;;;;;;;24.61;43.59;102024.56;5060586;28;20028;-62
2021/06/10 09:52:56;;;;;;;22.00;10.15;;;;;;;24.72;42.89;102032.25;5062478;28;20055;-63
2021/06/10 09:55:34;;;;;;;22.50;11.20;;;;;;;24.82;40.48;102030.13;5063851;28;20037;-64
2021/06/10 09:58:35;;;;;;;20.40;7.35;;;;;;;24.83;38.17;102032.75;5057328;28;20422;-62
2021/06/10 10:01:11;;;;;;;19.50;8.13;;;;;;;24.97;38.92;102037.63;5060055;28;20024;-63
2021/06/10 10:03:42;;;;;;;19.33;7.93;;;;;;;25.26;35.88;102030.25;5062078;28;20064;-63
2021/06/10 10:06:30;;;;;;;20.20;7.75;;;;;;;25.84;34.24;102032.47;5064558;28;20474;-65
2021/06/10 10:09:05;;;;;;;20.23;8.18;;;;;;;27.40;32.59;102031.06;5063218;28;20052;-65
2021/06/10 10:11:33;;;;;;;22.73;10.82;;;;;;;28.77;32.32;102025.97;5064244;28;20024;-64
2021/06/10 10:14:00;;;;;;;22.08;10.73;;;;;;;29.56;31.26;102024.34;5065619;28;20037;-65
2021/06/10 10:16:34;;;;;;;21.60;10.93;;;;;;;29.72;30.28;102035.25;5065524;28;20028;-65
2021/06/10 10:19:03;;;;;;;22.77;10.63;;;;;;;30.02;28.77;102031.72;5065747;28;20036;-63
2021/06/10 10:21:31;;;;;;;21.85;10.73;;;;;;;30.07;27.23;102029.59;5067034;28;20023;-63
2021/06/10 10:24:01;;;;;;;22.50;11.35;;;;;;;29.77;27.60;102033.16;5065301;28;20028;-63
2021/06/10 10:26:28;;;;;;;23.88;12.20;;;;;;;29.55;29.73;102023.50;5065249;28;20021;-64
2021/06/10 10:28:54;;;;;;;25.02;12.10;;;;;;;29.06;28.78;102030.81;5065575;28;20048;-64
2021/06/10 10:31:20;;;;;;;23.80;12.00;;;;;;;29.34;30.34;102032.88;5064198;28;20023;-64
2021/06/10 10:33:48;;;;;;;23.33;11.48;;;;;;;30.32;27.45;102033.56;5066776;28;20103;-63
2021/06/10 10:36:28;;;;;;;22.33;10.18;;;;;;;30.94;28.25;102027.94;5063247;28;20035;-65
2021/06/10 10:38:58;;;;;;;22.90;10.27;;;;;;;30.91;25.99;102020.81;5062188;28;20023;-63
2021/06/10 10:41:23;;;;;;;21.23;9.18;;;;;;;31.03;26.50;102016.44;5064991;28;20037;-62
2021/06/10 10:43:50;;;;;;;24.17;11.68;;;;;;;31.66;24.39;102029.72;5063101;28;20108;-62
2021/06/10 10:46:19;;;;;;;22.30;10.60;;;;;;;31.71;26.42;102024.84;5065794;28;20127;-63
2021/06/10 10:48:49;;;;;;;22.70;10.95;;;;;;;32.34;24.23;102015.09;5063340;28;20028;-63
2021/06/10 10:51:21;;;;;;;23.02;11.60;;;;;;;31.87;24.16;102020.09;5059553;28;20395;-64
2021/06/10 10:53:53;;;;;;;22.70;10.88;;;;;;;32.10;24.10;102020.41;5066299;28;20390;-71
2021/06/10 10:56:18;;;;;;;22.13;10.15;;;;;;;32.71;23.48;102015.28;5063602;28;20399;-72
2021/06/10 10:59:09;;;;;;;22.52;10.88;;;;;;;33.53;21.66;102017.53;5065250;28;20027;-69
2021/06/10 11:01:35;;;;;;;24.90;12.48;;;;;;;32.47;21.69;102013.25;5065010;28;20111;-73
2021/06/10 11:04:00;;;;;;;22.58;10.48;;;;;;;31.70;23.16;102013.03;5062004;28;20206;-63
2021/06/10 11:06:30;;;;;;;22.98;10.60;;;;;;;32.40;21.50;102011.06;5059546;28;20025;-67
2021/06/10 11:09:11;;;;;;;23.45;12.07;;;;;;;32.75;21.19;102010.44;5057760;28;20025;-62
2021/06/10 11:11:54;;;;;;;23.48;12.52;;;;;;;32.78;22.28;102024.78;5060178;28;20037;-66
2021/06/10 11:14:53;;;;;;;23.55;12.27;;;;;;;32.98;21.40;102009.63;5057856;28;20055;-66